createdAt,value
2023-05-23T00:02:15.475Z,12.10
2023-05-23T00:04:44.282Z,13.70
2023-05-23T00:07:12.389Z,12.80
2023-05-23T00:09:39.975Z,14.53
2023-05-23T00:12:08.054Z,13.07
2023-05-23T00:14:35.781Z,14.33
2023-05-23T00:17:03.446Z,13.47
2023-05-23T00:19:36.452Z,13.03
2023-05-23T00:22:04.376Z,13.77
2023-05-23T00:24:31.974Z,13.13
2023-05-23T00:26:59.531Z,13.30
2023-05-23T00:29:27.060Z,12.90
2023-05-23T00:31:54.627Z,12.93
2023-05-23T00:34:22.226Z,12.53
2023-05-23T00:36:51.202Z,12.20
2023-05-23T00:39:20.973Z,12.47
2023-05-23T00:41:52.301Z,13.83
2023-05-23T00:44:21.517Z,14.00
2023-05-23T00:46:52.844Z,14.03
2023-05-23T00:49:21.074Z,12.90
2023-05-23T00:51:49.628Z,14.80
2023-05-23T00:54:19.888Z,15.00
2023-05-23T00:56:48.726Z,14.60
2023-05-23T00:59:17.076Z,13.67
2023-05-23T01:01:47.286Z,12.70
2023-05-23T01:04:16.706Z,13.50
2023-05-23T01:06:47.074Z,13.67
2023-05-23T01:09:15.460Z,14.33
2023-05-23T01:11:49.569Z,13.43
2023-05-23T01:14:21.884Z,13.40
2023-05-23T01:16:53.816Z,13.70
2023-05-23T01:19:42.098Z,13.50
2023-05-23T01:22:13.910Z,13.80
2023-05-23T01:24:49.850Z,13.17
2023-05-23T01:27:24.976Z,12.90
2023-05-23T01:29:57.543Z,13.40
2023-05-23T01:32:26.421Z,13.17
2023-05-23T01:34:54.722Z,13.57
2023-05-23T01:37:22.253Z,14.00
2023-05-23T01:39:50.027Z,14.10
2023-05-23T01:42:17.772Z,14.00
2023-05-23T01:44:46.619Z,14.40
2023-05-23T01:47:16.472Z,13.40
2023-05-23T01:49:45.181Z,13.77
2023-05-23T01:52:13.327Z,13.97
2023-05-23T01:54:42.557Z,13.97
2023-05-23T01:57:10.799Z,13.77
2023-05-23T01:59:39.214Z,14.27
2023-05-23T02:02:07.405Z,13.20
2023-05-23T02:04:36.411Z,14.53
2023-05-23T02:07:03.961Z,14.00
2023-05-23T02:09:31.488Z,14.73
2023-05-23T02:11:59.638Z,14.33
2023-05-23T02:14:28.428Z,14.50
2023-05-23T02:16:56.068Z,14.83
2023-05-23T02:19:23.803Z,14.07
2023-05-23T02:21:52.723Z,13.67
2023-05-23T02:24:20.831Z,14.40
2023-05-23T02:26:48.374Z,13.50
2023-05-23T02:29:16.519Z,13.40
2023-05-23T02:31:44.262Z,14.80
2023-05-23T02:34:11.895Z,15.00
2023-05-23T02:36:39.431Z,13.30
2023-05-23T02:39:08.331Z,13.40
2023-05-23T02:41:37.150Z,14.53
2023-05-23T02:44:04.766Z,15.13
2023-05-23T02:46:32.400Z,14.67
2023-05-23T02:48:59.982Z,14.17
2023-05-23T02:51:27.559Z,13.93
2023-05-23T02:53:55.132Z,14.10
2023-05-23T02:56:24.081Z,14.10
2023-05-23T02:58:52.593Z,14.53
2023-05-23T03:01:20.218Z,14.63
2023-05-23T03:03:47.882Z,14.03
2023-05-23T03:06:16.951Z,13.93
2023-05-23T03:08:44.743Z,15.83
2023-05-23T03:11:12.433Z,14.83
2023-05-23T03:13:41.510Z,14.27
2023-05-23T03:16:09.340Z,14.90
2023-05-23T03:18:37.192Z,14.07
2023-05-23T03:21:05.277Z,15.13
2023-05-23T03:23:32.976Z,14.27
2023-05-23T03:26:00.854Z,13.93
2023-05-23T03:28:28.530Z,14.00
2023-05-23T03:30:58.018Z,14.23
2023-05-23T03:33:25.853Z,13.77
2023-05-23T03:35:53.632Z,14.23
2023-05-23T03:38:21.853Z,14.10
2023-05-23T03:40:49.514Z,12.93
2023-05-23T03:43:17.455Z,13.70
2023-05-23T03:45:45.309Z,13.47
2023-05-23T03:48:14.521Z,12.70
2023-05-23T03:50:42.198Z,14.10
2023-05-23T03:53:09.916Z,13.07
2023-05-23T03:55:37.666Z,14.03
2023-05-23T03:58:05.606Z,12.60
2023-05-23T04:00:33.433Z,13.43
2023-05-23T04:03:01.213Z,13.20
2023-05-23T04:05:30.286Z,14.90
2023-05-23T04:08:01.372Z,14.03
2023-05-23T04:10:29.169Z,14.73
2023-05-23T04:12:56.939Z,15.77
2023-05-23T04:15:24.977Z,14.37
2023-05-23T04:17:53.092Z,14.50
2023-05-23T04:20:21.133Z,14.67
2023-05-23T04:22:50.060Z,14.03
2023-05-23T04:25:18.656Z,14.40
2023-05-23T04:27:47.330Z,13.30
2023-05-23T04:30:17.818Z,13.73
2023-05-23T04:32:46.128Z,13.73
2023-05-23T04:35:14.596Z,13.50
2023-05-23T04:37:42.534Z,12.87
2023-05-23T04:40:13.513Z,13.27
2023-05-23T04:42:42.378Z,12.87
2023-05-23T04:45:11.414Z,13.97
2023-05-23T04:47:39.078Z,13.30
2023-05-23T04:50:07.581Z,12.77
2023-05-23T04:52:35.191Z,12.93
2023-05-23T04:55:03.079Z,14.00
2023-05-23T04:57:32.281Z,13.10
2023-05-23T05:00:01.039Z,11.73
2023-05-23T05:02:28.691Z,13.20
2023-05-23T05:04:56.301Z,13.13
2023-05-23T05:07:23.925Z,12.87
2023-05-23T05:09:51.510Z,13.77
2023-05-23T05:12:19.057Z,13.23
2023-05-23T05:14:47.959Z,11.60
2023-05-23T05:17:15.522Z,12.10
2023-05-23T05:19:43.105Z,12.77
2023-05-23T05:22:10.697Z,12.70
2023-05-23T05:24:40.320Z,12.87
2023-05-23T05:27:09.456Z,12.17
2023-05-23T05:29:37.197Z,12.63
2023-05-23T05:32:08.989Z,12.13
2023-05-23T05:34:37.802Z,13.80
2023-05-23T05:37:06.123Z,12.47
2023-05-23T05:39:33.714Z,12.23
2023-05-23T05:42:03.628Z,12.37
2023-05-23T05:44:31.306Z,12.63
2023-05-23T05:46:58.874Z,13.23
2023-05-23T05:49:28.257Z,13.00
2023-05-23T05:51:55.859Z,12.80
2023-05-23T05:54:23.739Z,12.40
2023-05-23T05:56:51.267Z,11.20
2023-05-23T05:59:18.845Z,11.80
2023-05-23T06:01:46.467Z,12.00
2023-05-23T06:04:14.518Z,10.83
2023-05-23T06:06:43.704Z,11.17
2023-05-23T06:09:11.458Z,10.43
2023-05-23T06:11:41.156Z,11.20
2023-05-23T06:14:09.498Z,10.63
2023-05-23T06:16:37.571Z,10.87
2023-05-23T06:19:05.200Z,11.63
2023-05-23T06:21:33.156Z,10.90
2023-05-23T06:24:02.046Z,11.00
2023-05-23T06:26:29.653Z,10.10
2023-05-23T06:28:57.250Z,10.03
2023-05-23T06:31:24.854Z,10.53
2023-05-23T06:33:52.447Z,10.13
2023-05-23T06:36:20.075Z,10.20
2023-05-23T06:38:48.640Z,11.67
2023-05-23T06:41:17.549Z,10.40
2023-05-23T06:43:45.151Z,10.23
2023-05-23T06:46:12.797Z,10.37
2023-05-23T06:48:40.424Z,9.87
2023-05-23T06:51:08.120Z,9.77
2023-05-23T06:53:35.758Z,9.50
2023-05-23T06:56:03.387Z,10.60
2023-05-23T06:58:32.293Z,9.37
2023-05-23T07:00:59.923Z,9.87
2023-05-23T07:03:27.598Z,9.40
2023-05-23T07:05:55.211Z,8.77
2023-05-23T07:08:22.813Z,10.07
2023-05-23T07:10:50.490Z,9.00
2023-05-23T07:13:18.130Z,8.80
2023-05-23T07:15:47.012Z,9.63
2023-05-23T07:18:14.661Z,9.60
2023-05-23T07:20:42.474Z,9.67
2023-05-23T07:23:10.435Z,9.13
2023-05-23T07:25:42.223Z,9.30
2023-05-23T07:28:14.825Z,9.03
2023-05-23T07:30:43.106Z,8.83
2023-05-23T07:33:12.117Z,8.90
2023-05-23T07:35:39.673Z,8.80
2023-05-23T07:38:07.393Z,9.67
2023-05-23T07:40:35.074Z,8.87
2023-05-23T07:43:02.644Z,9.13
2023-05-23T07:45:30.167Z,8.53
2023-05-23T07:47:57.824Z,9.00
2023-05-23T07:50:27.757Z,8.67
2023-05-23T07:52:55.883Z,9.00
2023-05-23T07:55:24.347Z,9.80
2023-05-23T07:57:52.556Z,9.23
2023-05-23T08:00:20.687Z,9.57
2023-05-23T08:02:48.291Z,8.90
2023-05-23T08:05:16.213Z,9.03
2023-05-23T08:07:45.423Z,9.07
2023-05-23T08:10:13.019Z,10.03
2023-05-23T08:12:40.575Z,8.90
2023-05-23T08:15:09.360Z,9.37
2023-05-23T08:17:37.670Z,10.07
2023-05-23T08:20:06.060Z,10.20
2023-05-23T08:22:33.670Z,9.97
2023-05-23T08:25:03.169Z,9.43
2023-05-23T08:27:31.361Z,10.20
2023-05-23T08:29:59.677Z,10.33
2023-05-23T08:32:27.419Z,9.90
2023-05-23T08:34:55.002Z,9.30
2023-05-23T08:37:22.589Z,10.50
2023-05-23T08:39:50.242Z,10.07
2023-05-23T08:42:19.236Z,10.27
2023-05-23T08:44:47.314Z,9.77
2023-05-23T08:47:17.429Z,9.73
2023-05-23T08:49:45.250Z,9.40
2023-05-23T08:52:13.772Z,9.30
2023-05-23T08:54:50.902Z,9.17
2023-05-23T08:57:19.849Z,9.60
2023-05-23T08:59:48.135Z,9.77
2023-05-23T09:02:16.054Z,9.87
2023-05-23T09:04:43.646Z,9.33
2023-05-23T09:07:12.810Z,9.10
2023-05-23T09:09:40.389Z,9.17
2023-05-23T09:12:08.082Z,9.50
2023-05-23T09:14:37.352Z,8.80
2023-05-23T09:17:05.134Z,9.50
2023-05-23T09:19:33.403Z,7.80
2023-05-23T09:22:03.408Z,8.30
2023-05-23T09:24:35.887Z,8.90
2023-05-23T09:27:03.711Z,8.03
2023-05-23T09:29:31.773Z,7.87
2023-05-23T09:32:11.770Z,7.77
2023-05-23T09:34:42.026Z,8.00
2023-05-23T09:37:09.727Z,7.20
2023-05-23T09:39:38.792Z,7.60
2023-05-23T09:42:07.188Z,7.43
2023-05-23T09:44:42.472Z,7.30
2023-05-23T09:47:11.418Z,8.03
2023-05-23T09:49:40.446Z,7.97
2023-05-23T09:52:08.091Z,8.10
2023-05-23T09:54:35.744Z,7.47
2023-05-23T09:57:05.842Z,8.60
2023-05-23T09:59:35.980Z,8.77
2023-05-23T10:02:04.562Z,9.53
2023-05-23T10:04:35.761Z,8.50
2023-05-23T10:07:07.134Z,8.60
2023-05-23T10:09:37.651Z,9.23
2023-05-23T10:12:41.611Z,8.50
2023-05-23T10:15:11.063Z,8.30
2023-05-23T10:17:48.032Z,7.67
2023-05-23T10:20:17.749Z,8.13
2023-05-23T10:22:45.779Z,8.30
2023-05-23T10:25:13.619Z,8.00
2023-05-23T10:27:41.487Z,8.67
2023-05-23T10:30:10.547Z,8.03
2023-05-23T10:32:40.397Z,8.90
2023-05-23T10:35:13.773Z,7.87
2023-05-23T10:37:49.598Z,7.93
2023-05-23T10:40:22.906Z,7.57
2023-05-23T10:42:54.162Z,8.37
2023-05-23T10:45:23.320Z,8.27
2023-05-23T10:47:52.426Z,7.67
2023-05-23T10:50:33.121Z,7.70
2023-05-23T10:53:03.306Z,8.47
2023-05-23T10:55:33.562Z,7.87
2023-05-23T10:58:11.165Z,7.63
2023-05-23T11:00:39.158Z,7.77
2023-05-23T11:03:09.060Z,7.97
2023-05-23T11:05:38.708Z,8.80
2023-05-23T11:08:13.928Z,8.20
2023-05-23T11:10:57.434Z,8.10
2023-05-23T11:13:25.309Z,8.23
2023-05-23T11:15:53.239Z,8.03
2023-05-23T11:18:22.102Z,8.60
2023-05-23T11:20:54.104Z,7.17
2023-05-23T11:23:23.932Z,8.00
2023-05-23T11:25:52.396Z,8.20
2023-05-23T11:28:20.570Z,7.23
2023-05-23T11:30:49.281Z,7.83
2023-05-23T11:33:18.388Z,7.70
2023-05-23T11:35:47.063Z,8.30
2023-05-23T11:38:15.362Z,8.30
2023-05-23T11:40:45.527Z,7.90
2023-05-23T11:43:15.090Z,7.37
2023-05-23T11:45:42.761Z,7.10
2023-05-23T11:48:11.758Z,8.43
2023-05-23T11:50:46.865Z,8.30
2023-05-23T11:53:17.116Z,8.30
2023-05-23T11:55:53.106Z,7.13
2023-05-23T11:58:21.985Z,7.30
2023-05-23T12:00:49.574Z,7.17
2023-05-23T12:03:17.376Z,7.90
2023-05-23T12:05:46.087Z,7.07
2023-05-23T12:08:15.014Z,7.00
2023-05-23T12:10:54.723Z,7.17
2023-05-23T12:13:25.129Z,8.03
2023-05-23T12:15:56.148Z,7.93
2023-05-23T12:18:24.152Z,7.93
2023-05-23T12:20:53.137Z,7.50
2023-05-23T12:23:22.486Z,7.67
2023-05-23T12:25:55.706Z,8.13
2023-05-23T12:28:35.351Z,6.87
2023-05-23T12:31:10.201Z,7.40
2023-05-23T12:33:39.551Z,7.93
2023-05-23T12:36:07.559Z,7.73
2023-05-23T12:38:37.820Z,7.43
2023-05-23T12:41:11.456Z,6.70
2023-05-23T12:43:40.114Z,6.70
2023-05-23T12:46:08.436Z,6.90
2023-05-23T12:48:35.960Z,6.80
2023-05-23T12:51:04.154Z,7.40
2023-05-23T12:53:32.010Z,6.77
2023-05-23T12:55:59.582Z,6.57
2023-05-23T12:58:30.938Z,7.00
2023-05-23T13:00:59.063Z,6.70
2023-05-23T13:03:26.951Z,5.90
2023-05-23T13:05:55.064Z,6.60
2023-05-23T13:08:22.691Z,5.90
2023-05-23T13:10:50.869Z,6.17
2023-05-23T13:13:18.477Z,6.47
2023-05-23T13:15:49.704Z,5.93
2023-05-23T13:18:18.512Z,5.77
2023-05-23T13:20:46.634Z,6.17
2023-05-23T13:23:14.417Z,6.23
2023-05-23T13:25:42.745Z,6.03
2023-05-23T13:28:11.077Z,5.93
2023-05-23T13:30:38.782Z,6.10
2023-05-23T13:33:07.915Z,5.40
2023-05-23T13:35:35.528Z,5.97
2023-05-23T13:38:03.120Z,5.67
2023-05-23T13:40:30.737Z,5.33
2023-05-23T13:42:58.302Z,5.40
2023-05-23T13:45:25.856Z,5.87
2023-05-23T13:47:53.620Z,5.50
2023-05-23T13:50:22.656Z,5.40
2023-05-23T13:52:50.262Z,4.77
2023-05-23T13:55:18.578Z,4.83
2023-05-23T13:57:47.004Z,4.87
2023-05-23T14:00:16.123Z,5.33
2023-05-23T14:02:43.773Z,4.90
2023-05-23T14:05:11.347Z,4.80
2023-05-23T14:07:41.263Z,4.80
2023-05-23T14:10:09.661Z,4.60
2023-05-23T14:12:37.741Z,4.57
2023-05-23T14:15:05.965Z,4.53
2023-05-23T14:17:33.546Z,4.30
2023-05-23T14:20:01.199Z,3.93
2023-05-23T14:22:28.803Z,3.40
2023-05-23T14:24:58.724Z,3.70
2023-05-23T14:27:27.716Z,3.30
2023-05-23T14:29:55.315Z,3.40
2023-05-23T14:32:23.221Z,3.20
2023-05-23T14:34:50.767Z,3.00
2023-05-23T14:37:37.048Z,2.90
2023-05-23T14:40:06.658Z,3.40
2023-05-23T14:42:34.232Z,3.33
2023-05-23T14:45:01.841Z,2.80
2023-05-23T14:47:29.485Z,3.07
2023-05-23T14:49:57.068Z,2.87
2023-05-23T14:52:24.837Z,2.77
2023-05-23T14:54:52.436Z,3.07
2023-05-23T14:57:21.476Z,3.23
2023-05-23T14:59:49.019Z,3.37
2023-05-23T15:02:17.102Z,2.60
2023-05-23T15:04:44.716Z,2.97
2023-05-23T15:07:13.575Z,2.80
2023-05-23T15:09:41.208Z,2.73
2023-05-23T15:12:09.831Z,2.30
2023-05-23T15:14:38.747Z,2.70
2023-05-23T15:17:08.520Z,2.53
2023-05-23T15:19:37.093Z,2.77
2023-05-23T15:22:05.506Z,2.50
2023-05-23T15:27:15.710Z,2.47
2023-05-23T15:29:47.810Z,2.30
2023-05-23T15:32:15.494Z,3.37
2023-05-23T15:34:43.857Z,3.50
2023-05-23T15:37:11.431Z,2.83
2023-05-23T15:39:38.973Z,2.63
2023-05-23T15:42:06.979Z,3.00
2023-05-23T15:44:34.601Z,2.90
2023-05-23T15:47:03.546Z,3.60
2023-05-23T15:49:31.109Z,3.23
2023-05-23T15:51:58.645Z,3.10
2023-05-23T15:54:26.357Z,2.70
2023-05-23T15:56:53.923Z,4.00
2023-05-23T15:59:21.488Z,3.10
2023-05-23T16:01:49.161Z,3.40
2023-05-23T16:04:18.191Z,3.00
2023-05-23T16:06:45.814Z,2.70
2023-05-23T16:09:13.452Z,3.37
2023-05-23T16:11:41.216Z,3.27
2023-05-23T16:14:08.855Z,2.73
2023-05-23T16:16:36.524Z,3.20
2023-05-23T16:19:04.204Z,3.40
2023-05-23T16:21:33.312Z,3.33
2023-05-23T16:24:01.146Z,3.80
2023-05-23T16:26:28.801Z,3.30
2023-05-23T16:28:56.339Z,3.17
2023-05-23T16:31:27.247Z,3.17
2023-05-23T16:33:55.206Z,3.40
2023-05-23T16:36:23.202Z,3.87
2023-05-23T16:38:54.089Z,3.40
2023-05-23T16:41:23.151Z,3.50
2023-05-23T16:43:51.707Z,3.40
2023-05-23T16:46:22.209Z,3.13
2023-05-23T16:48:50.115Z,3.60
2023-05-23T16:51:17.871Z,3.73
2023-05-23T16:53:45.574Z,3.40
2023-05-23T16:56:14.710Z,3.57
2023-05-23T16:58:42.362Z,3.90
2023-05-23T17:01:10.093Z,3.60
2023-05-23T17:03:37.967Z,3.70
2023-05-23T17:06:05.907Z,3.27
2023-05-23T17:08:34.688Z,3.60
2023-05-23T17:11:02.431Z,3.90
2023-05-23T17:13:32.720Z,3.73
2023-05-23T17:16:00.567Z,4.33
2023-05-23T17:18:28.274Z,4.70
2023-05-23T17:20:55.957Z,3.70
2023-05-23T17:23:24.025Z,3.57
2023-05-23T17:25:51.709Z,3.60
2023-05-23T17:28:19.611Z,4.00
2023-05-23T17:30:48.690Z,3.97
2023-05-23T17:33:16.495Z,3.73
2023-05-23T17:35:44.460Z,3.80
2023-05-23T17:38:12.408Z,3.90
2023-05-23T17:40:40.212Z,3.93
2023-05-23T17:43:08.392Z,2.77
2023-05-23T17:45:36.230Z,3.50
2023-05-23T17:48:05.716Z,3.17
2023-05-23T17:50:33.481Z,3.80
2023-05-23T17:53:03.413Z,3.50
2023-05-23T17:55:31.907Z,3.80
2023-05-23T17:57:59.718Z,3.37
2023-05-23T18:00:27.479Z,3.60
2023-05-23T18:02:55.198Z,3.83
2023-05-23T18:05:24.222Z,4.10
2023-05-23T18:07:51.920Z,3.27
2023-05-23T18:10:19.704Z,3.63
2023-05-23T18:12:47.638Z,3.57
2023-05-23T18:15:15.459Z,3.87
2023-05-23T18:17:43.260Z,3.40
2023-05-23T18:20:12.737Z,3.73
2023-05-23T18:22:41.700Z,3.60
2023-05-23T18:25:10.156Z,3.37
2023-05-23T18:27:37.867Z,3.73
2023-05-23T18:30:06.566Z,3.80
2023-05-23T18:32:34.343Z,3.57
2023-05-23T18:35:02.014Z,3.90
2023-05-23T18:37:29.760Z,4.10
2023-05-23T18:40:00.262Z,3.57
2023-05-23T18:42:27.952Z,3.40
2023-05-23T18:44:55.742Z,3.80
2023-05-23T18:47:23.778Z,3.70
2023-05-23T18:49:52.142Z,3.93
2023-05-23T18:52:19.892Z,3.90
2023-05-23T18:54:48.263Z,3.80
2023-05-23T18:57:17.718Z,3.47
2023-05-23T18:59:45.443Z,3.03
2023-05-23T19:02:13.403Z,3.60
2023-05-23T19:04:41.934Z,3.40
2023-05-23T19:07:09.713Z,3.60
2023-05-23T19:09:37.497Z,3.40
2023-05-23T19:12:05.484Z,3.27
2023-05-23T19:14:34.537Z,3.20
2023-05-23T19:17:06.019Z,3.57
2023-05-23T19:19:34.621Z,3.13
2023-05-23T19:22:02.493Z,3.40
2023-05-23T19:24:30.203Z,3.30
2023-05-23T19:26:57.970Z,3.27
2023-05-23T19:29:25.698Z,3.23
2023-05-23T19:31:55.201Z,3.23
2023-05-23T19:34:23.023Z,3.30
2023-05-23T19:36:51.378Z,2.93
2023-05-23T19:39:19.188Z,3.70
2023-05-23T19:41:46.975Z,3.20
2023-05-23T19:44:14.660Z,3.20
2023-05-23T19:46:42.377Z,3.87
2023-05-23T19:49:12.032Z,3.30
2023-05-23T19:51:39.799Z,3.67
2023-05-23T19:54:07.599Z,3.37
2023-05-23T19:56:36.160Z,3.50
2023-05-23T19:59:03.843Z,3.73
2023-05-23T20:01:33.666Z,3.30
2023-05-23T20:04:01.694Z,3.30
2023-05-23T20:06:31.241Z,3.60
2023-05-23T20:08:58.989Z,3.20
2023-05-23T20:11:28.944Z,3.40
2023-05-23T20:13:56.631Z,3.23
2023-05-23T20:16:24.378Z,3.27
2023-05-23T20:18:52.181Z,3.37
2023-05-23T20:21:20.002Z,3.33
2023-05-23T20:23:49.233Z,3.77
2023-05-23T20:26:16.998Z,3.70
2023-05-23T20:28:44.760Z,3.60
2023-05-23T20:31:12.787Z,4.40
2023-05-23T20:33:40.598Z,3.67
2023-05-23T20:36:08.536Z,3.83
2023-05-23T20:38:36.280Z,3.83
2023-05-23T20:41:06.653Z,4.30
2023-05-23T20:43:37.138Z,3.97
2023-05-23T20:46:06.143Z,3.73
2023-05-23T20:48:34.434Z,3.80
2023-05-23T20:51:02.334Z,4.17
2023-05-23T20:53:31.435Z,3.47
2023-05-23T20:55:59.173Z,4.10
2023-05-23T20:58:28.428Z,4.67
2023-05-23T21:00:56.159Z,4.33
2023-05-23T21:03:23.915Z,4.23
2023-05-23T21:05:51.717Z,5.20
2023-05-23T21:08:19.387Z,5.07
2023-05-23T21:10:50.672Z,4.70
2023-05-23T21:13:19.344Z,4.77
2023-05-23T21:15:48.586Z,4.77
2023-05-23T21:18:16.313Z,4.73
2023-05-23T21:20:44.221Z,4.30
2023-05-23T21:23:12.143Z,4.33
2023-05-23T21:25:40.052Z,4.57
2023-05-23T21:28:07.787Z,4.50
2023-05-23T21:30:35.511Z,4.27
2023-05-23T21:33:04.768Z,4.40
2023-05-23T21:35:32.474Z,4.27
2023-05-23T21:38:00.196Z,4.40
2023-05-23T21:40:27.893Z,4.67
2023-05-23T21:42:55.634Z,4.57
2023-05-23T21:45:23.557Z,4.40
2023-05-23T21:47:51.321Z,5.20
2023-05-23T21:50:20.452Z,5.30
2023-05-23T21:52:48.137Z,5.43
2023-05-23T21:55:15.910Z,5.07
2023-05-23T21:57:43.605Z,4.83
2023-05-23T22:00:13.060Z,5.37
2023-05-23T22:02:41.079Z,5.23
2023-05-23T22:05:09.357Z,4.80
2023-05-23T22:07:38.430Z,5.00
2023-05-23T22:10:07.320Z,5.03
2023-05-23T22:12:35.079Z,4.93
2023-05-23T22:15:03.037Z,5.60
2023-05-23T22:17:34.034Z,5.20
2023-05-23T22:20:02.323Z,5.40
2023-05-23T22:22:30.030Z,5.27
2023-05-23T22:24:59.095Z,5.47
2023-05-23T22:27:27.317Z,4.83
2023-05-23T22:29:55.022Z,4.60
2023-05-23T22:32:22.837Z,4.67
2023-05-23T22:34:50.683Z,4.97
2023-05-23T22:37:18.451Z,4.87
2023-05-23T22:39:46.215Z,4.93
2023-05-23T22:42:15.459Z,4.60
2023-05-23T22:44:43.769Z,4.73
2023-05-23T22:47:13.788Z,4.67
2023-05-23T22:49:42.559Z,5.00
2023-05-23T22:52:10.341Z,4.70
2023-05-23T22:54:38.179Z,5.40
2023-05-23T22:57:06.302Z,4.50
2023-05-23T22:59:35.513Z,4.40
2023-05-23T23:02:03.274Z,4.43
2023-05-23T23:04:31.438Z,4.63
2023-05-23T23:07:01.296Z,4.40
2023-05-23T23:09:29.063Z,4.60
2023-05-23T23:11:56.793Z,4.00
2023-05-23T23:14:24.659Z,3.77
2023-05-23T23:16:53.810Z,3.97
2023-05-23T23:19:21.859Z,4.37
2023-05-23T23:21:49.589Z,4.30
2023-05-23T23:24:17.764Z,4.10
2023-05-23T23:26:45.467Z,4.37
2023-05-23T23:29:13.244Z,4.07
2023-05-23T23:31:40.996Z,4.50
2023-05-23T23:34:10.090Z,4.87
2023-05-23T23:36:39.726Z,4.63
2023-05-23T23:39:07.623Z,4.73
2023-05-23T23:41:35.418Z,4.63
2023-05-23T23:44:03.128Z,3.87
2023-05-23T23:46:31.231Z,3.90
2023-05-23T23:48:59.027Z,3.20
2023-05-23T23:51:28.260Z,3.80
2023-05-23T23:53:56.527Z,4.00
2023-05-23T23:56:24.729Z,3.57
2023-05-23T23:58:52.520Z,3.80
